Terminal Aerodrome Forecast
Issued by NWS Rapid City, SD

Home | Current Version | Previous Version | Graphics & Text | Print | Product List | Glossary On
Versions: 1 2 3 4 5 6 7 8 9 10 11 12 13 14 15 16 17 18
000
FTUS43 KUNR 301700
TAFRAP
TAF
KRAP 301720Z 3018/3118 16015KT P6SM SKC
     FM302300 18018KT P6SM SCT060 BKN150
      TEMPO 3100/3104 4SM TSRA BKN060CB
     FM310500 30020G30KT P6SM SCT100 BKN200
     FM310900 33010KT P6SM SCT100 BKN200=

USA.gov is the U.S. government's official web portal to all federal, state and local government web resources and services.